sensor_id;sensor_type;location;lat;lon;timestamp;P1;durP1;ratioP1;P2;durP2;ratioP2
74213;SDS011;62576;55.694;37.494;2023-05-15T00:00:21;8.48;;;3.67;;
74213;SDS011;62576;55.694;37.494;2023-05-15T00:02:52;11.00;;;3.60;;
74213;SDS011;62576;55.694;37.494;2023-05-15T00:05:22;7.10;;;3.50;;
74213;SDS011;62576;55.694;37.494;2023-05-15T00:07:52;6.88;;;3.35;;
74213;SDS011;62576;55.694;37.494;2023-05-15T00:10:24;14.55;;;4.15;;
74213;SDS011;62576;55.694;37.494;2023-05-15T00:12:56;11.18;;;3.90;;
74213;SDS011;62576;55.694;37.494;2023-05-15T00:15:26;12.63;;;4.22;;
74213;SDS011;62576;55.694;37.494;2023-05-15T00:17:57;10.02;;;3.80;;
74213;SDS011;62576;55.694;37.494;2023-05-15T00:20:27;9.35;;;3.58;;
74213;SDS011;62576;55.694;37.494;2023-05-15T00:22:56;11.57;;;4.18;;
74213;SDS011;62576;55.694;37.494;2023-05-15T00:25:26;7.65;;;3.40;;
74213;SDS011;62576;55.694;37.494;2023-05-15T00:27:58;10.25;;;4.30;;
74213;SDS011;62576;55.694;37.494;2023-05-15T00:30:28;10.07;;;4.05;;
74213;SDS011;62576;55.694;37.494;2023-05-15T00:32:58;9.05;;;3.70;;
74213;SDS011;62576;55.694;37.494;2023-05-15T00:35:28;10.35;;;3.97;;
74213;SDS011;62576;55.694;37.494;2023-05-15T00:37:58;10.07;;;4.10;;
74213;SDS011;62576;55.694;37.494;2023-05-15T00:40:28;14.95;;;4.60;;
74213;SDS011;62576;55.694;37.494;2023-05-15T00:43:00;7.72;;;4.30;;
74213;SDS011;62576;55.694;37.494;2023-05-15T00:45:31;10.02;;;4.38;;
74213;SDS011;62576;55.694;37.494;2023-05-15T00:48:02;8.65;;;4.20;;
74213;SDS011;62576;55.694;37.494;2023-05-15T00:50:34;11.45;;;4.20;;
74213;SDS011;62576;55.694;37.494;2023-05-15T00:53:04;8.75;;;4.30;;
74213;SDS011;62576;55.694;37.494;2023-05-15T00:55:35;8.07;;;4.40;;
74213;SDS011;62576;55.694;37.494;2023-05-15T00:58:07;8.95;;;4.18;;
74213;SDS011;62576;55.694;37.494;2023-05-15T01:00:39;8.38;;;4.38;;
74213;SDS011;62576;55.694;37.494;2023-05-15T01:03:10;10.65;;;4.40;;
74213;SDS011;62576;55.694;37.494;2023-05-15T01:05:41;10.40;;;4.85;;
74213;SDS011;62576;55.694;37.494;2023-05-15T01:08:12;10.93;;;4.72;;
74213;SDS011;62576;55.694;37.494;2023-05-15T01:10:48;9.73;;;4.88;;
74213;SDS011;62576;55.694;37.494;2023-05-15T01:13:21;12.77;;;6.20;;
74213;SDS011;62576;55.694;37.494;2023-05-15T01:15:53;14.35;;;5.53;;
74213;SDS011;62576;55.694;37.494;2023-05-15T01:18:23;12.43;;;5.50;;
74213;SDS011;62576;55.694;37.494;2023-05-15T01:21:05;14.50;;;5.65;;
74213;SDS011;62576;55.694;37.494;2023-05-15T01:23:58;12.85;;;6.07;;
74213;SDS011;62576;55.694;37.494;2023-05-15T01:26:50;15.38;;;6.10;;
74213;SDS011;62576;55.694;37.494;2023-05-15T01:29:49;14.93;;;6.20;;
74213;SDS011;62576;55.694;37.494;2023-05-15T01:32:26;10.43;;;5.88;;
74213;SDS011;62576;55.694;37.494;2023-05-15T01:35:02;12.50;;;6.30;;
74213;SDS011;62576;55.694;37.494;2023-05-15T01:37:39;10.95;;;5.88;;
74213;SDS011;62576;55.694;37.494;2023-05-15T01:40:13;11.10;;;6.38;;
74213;SDS011;62576;55.694;37.494;2023-05-15T01:42:50;12.73;;;6.47;;
74213;SDS011;62576;55.694;37.494;2023-05-15T01:45:23;17.00;;;7.30;;
74213;SDS011;62576;55.694;37.494;2023-05-15T01:47:53;17.38;;;6.65;;
74213;SDS011;62576;55.694;37.494;2023-05-15T01:50:24;15.90;;;6.50;;
74213;SDS011;62576;55.694;37.494;2023-05-15T01:52:56;13.40;;;7.00;;
74213;SDS011;62576;55.694;37.494;2023-05-15T01:55:29;13.38;;;7.13;;
74213;SDS011;62576;55.694;37.494;2023-05-15T01:58:01;13.90;;;7.63;;
74213;SDS011;62576;55.694;37.494;2023-05-15T02:00:32;14.98;;;7.70;;
74213;SDS011;62576;55.694;37.494;2023-05-15T02:03:06;15.77;;;7.30;;
74213;SDS011;62576;55.694;37.494;2023-05-15T02:05:37;13.32;;;6.90;;
74213;SDS011;62576;55.694;37.494;2023-05-15T02:08:08;16.20;;;7.47;;
74213;SDS011;62576;55.694;37.494;2023-05-15T02:10:40;14.10;;;7.07;;
74213;SDS011;62576;55.694;37.494;2023-05-15T02:13:13;14.80;;;8.27;;
74213;SDS011;62576;55.694;37.494;2023-05-15T02:15:44;12.88;;;7.10;;
74213;SDS011;62576;55.694;37.494;2023-05-15T02:18:14;13.95;;;6.28;;
74213;SDS011;62576;55.694;37.494;2023-05-15T02:20:46;15.52;;;6.70;;
74213;SDS011;62576;55.694;37.494;2023-05-15T02:23:16;13.60;;;6.38;;
74213;SDS011;62576;55.694;37.494;2023-05-15T02:25:53;12.52;;;6.57;;
74213;SDS011;62576;55.694;37.494;2023-05-15T02:28:40;14.85;;;7.18;;
74213;SDS011;62576;55.694;37.494;2023-05-15T02:31:16;16.92;;;7.68;;
74213;SDS011;62576;55.694;37.494;2023-05-15T02:33:57;12.50;;;7.00;;
74213;SDS011;62576;55.694;37.494;2023-05-15T02:36:29;15.43;;;7.43;;
74213;SDS011;62576;55.694;37.494;2023-05-15T02:39:02;13.20;;;7.22;;
74213;SDS011;62576;55.694;37.494;2023-05-15T02:41:32;15.10;;;7.82;;
74213;SDS011;62576;55.694;37.494;2023-05-15T02:44:06;16.38;;;7.65;;
74213;SDS011;62576;55.694;37.494;2023-05-15T02:46:37;15.10;;;8.00;;
74213;SDS011;62576;55.694;37.494;2023-05-15T02:49:08;16.67;;;8.20;;
74213;SDS011;62576;55.694;37.494;2023-05-15T02:51:39;18.35;;;7.38;;
74213;SDS011;62576;55.694;37.494;2023-05-15T02:54:10;15.73;;;7.88;;
74213;SDS011;62576;55.694;37.494;2023-05-15T02:56:40;14.90;;;7.72;;
74213;SDS011;62576;55.694;37.494;2023-05-15T02:59:11;14.63;;;7.60;;
74213;SDS011;62576;55.694;37.494;2023-05-15T03:01:47;15.95;;;7.68;;
74213;SDS011;62576;55.694;37.494;2023-05-15T03:04:16;17.77;;;7.65;;
74213;SDS011;62576;55.694;37.494;2023-05-15T03:06:46;13.88;;;7.45;;
74213;SDS011;62576;55.694;37.494;2023-05-15T03:09:16;13.23;;;7.70;;
74213;SDS011;62576;55.694;37.494;2023-05-15T03:11:44;12.73;;;7.40;;
74213;SDS011;62576;55.694;37.494;2023-05-15T03:14:15;18.75;;;7.65;;
74213;SDS011;62576;55.694;37.494;2023-05-15T03:16:45;15.82;;;7.60;;
74213;SDS011;62576;55.694;37.494;2023-05-15T03:19:15;14.90;;;7.90;;
74213;SDS011;62576;55.694;37.494;2023-05-15T03:21:45;15.68;;;7.75;;
74213;SDS011;62576;55.694;37.494;2023-05-15T03:24:15;13.70;;;7.60;;
74213;SDS011;62576;55.694;37.494;2023-05-15T03:26:45;16.15;;;7.30;;
74213;SDS011;62576;55.694;37.494;2023-05-15T03:29:17;15.57;;;7.65;;
74213;SDS011;62576;55.694;37.494;2023-05-15T03:31:47;13.82;;;7.50;;
74213;SDS011;62576;55.694;37.494;2023-05-15T03:34:17;19.15;;;7.50;;
74213;SDS011;62576;55.694;37.494;2023-05-15T03:36:47;15.18;;;7.70;;
74213;SDS011;62576;55.694;37.494;2023-05-15T03:39:16;15.32;;;7.80;;
74213;SDS011;62576;55.694;37.494;2023-05-15T03:41:47;16.23;;;7.40;;
74213;SDS011;62576;55.694;37.494;2023-05-15T03:44:18;19.67;;;7.20;;
74213;SDS011;62576;55.694;37.494;2023-05-15T03:46:48;12.95;;;7.82;;
74213;SDS011;62576;55.694;37.494;2023-05-15T03:49:18;19.45;;;7.50;;
74213;SDS011;62576;55.694;37.494;2023-05-15T03:51:48;15.55;;;7.30;;
74213;SDS011;62576;55.694;37.494;2023-05-15T03:54:18;16.77;;;6.93;;
74213;SDS011;62576;55.694;37.494;2023-05-15T03:56:48;14.05;;;6.70;;
74213;SDS011;62576;55.694;37.494;2023-05-15T03:59:20;12.75;;;6.13;;
74213;SDS011;62576;55.694;37.494;2023-05-15T04:01:50;14.25;;;5.43;;
74213;SDS011;62576;55.694;37.494;2023-05-15T04:04:20;13.27;;;5.68;;
74213;SDS011;62576;55.694;37.494;2023-05-15T04:06:51;11.20;;;5.28;;
74213;SDS011;62576;55.694;37.494;2023-05-15T04:09:24;10.25;;;4.93;;
74213;SDS011;62576;55.694;37.494;2023-05-15T04:11:53;10.98;;;4.93;;
74213;SDS011;62576;55.694;37.494;2023-05-15T04:14:25;12.10;;;4.90;;
74213;SDS011;62576;55.694;37.494;2023-05-15T04:16:55;10.00;;;4.85;;
74213;SDS011;62576;55.694;37.494;2023-05-15T04:19:25;10.60;;;5.13;;
74213;SDS011;62576;55.694;37.494;2023-05-15T04:21:55;10.93;;;4.50;;
74213;SDS011;62576;55.694;37.494;2023-05-15T04:24:25;8.52;;;4.82;;
74213;SDS011;62576;55.694;37.494;2023-05-15T04:26:55;10.18;;;4.70;;
74213;SDS011;62576;55.694;37.494;2023-05-15T04:29:26;11.68;;;5.22;;
74213;SDS011;62576;55.694;37.494;2023-05-15T04:34:28;9.82;;;4.30;;
74213;SDS011;62576;55.694;37.494;2023-05-15T04:36:57;6.38;;;3.90;;
74213;SDS011;62576;55.694;37.494;2023-05-15T04:39:30;9.23;;;4.15;;
74213;SDS011;62576;55.694;37.494;2023-05-15T04:42:02;7.45;;;3.92;;
74213;SDS011;62576;55.694;37.494;2023-05-15T04:44:34;8.27;;;4.05;;
74213;SDS011;62576;55.694;37.494;2023-05-15T04:47:04;11.85;;;4.32;;
74213;SDS011;62576;55.694;37.494;2023-05-15T04:49:34;8.40;;;4.32;;
74213;SDS011;62576;55.694;37.494;2023-05-15T04:52:05;7.72;;;3.95;;
74213;SDS011;62576;55.694;37.494;2023-05-15T04:54:35;8.57;;;3.88;;
74213;SDS011;62576;55.694;37.494;2023-05-15T04:57:04;6.43;;;3.72;;
74213;SDS011;62576;55.694;37.494;2023-05-15T04:59:36;9.15;;;3.70;;
74213;SDS011;62576;55.694;37.494;2023-05-15T05:02:07;8.65;;;3.60;;
74213;SDS011;62576;55.694;37.494;2023-05-15T05:04:40;11.70;;;4.53;;
74213;SDS011;62576;55.694;37.494;2023-05-15T05:07:13;8.15;;;4.15;;
74213;SDS011;62576;55.694;37.494;2023-05-15T05:09:43;9.40;;;4.40;;
74213;SDS011;62576;55.694;37.494;2023-05-15T05:12:13;9.07;;;4.40;;
74213;SDS011;62576;55.694;37.494;2023-05-15T05:14:45;5.45;;;3.50;;
74213;SDS011;62576;55.694;37.494;2023-05-15T05:17:15;9.95;;;3.80;;
74213;SDS011;62576;55.694;37.494;2023-05-15T05:19:45;4.93;;;3.20;;
74213;SDS011;62576;55.694;37.494;2023-05-15T05:22:15;5.53;;;2.70;;
74213;SDS011;62576;55.694;37.494;2023-05-15T05:24:45;5.40;;;2.90;;
74213;SDS011;62576;55.694;37.494;2023-05-15T05:27:15;4.38;;;2.78;;
74213;SDS011;62576;55.694;37.494;2023-05-15T05:29:47;6.70;;;3.63;;
74213;SDS011;62576;55.694;37.494;2023-05-15T05:32:17;7.70;;;3.35;;
74213;SDS011;62576;55.694;37.494;2023-05-15T05:34:47;8.10;;;3.42;;
74213;SDS011;62576;55.694;37.494;2023-05-15T05:37:19;6.25;;;3.47;;
74213;SDS011;62576;55.694;37.494;2023-05-15T05:39:49;6.25;;;3.33;;
74213;SDS011;62576;55.694;37.494;2023-05-15T05:42:19;5.93;;;3.10;;
74213;SDS011;62576;55.694;37.494;2023-05-15T05:44:50;7.60;;;3.30;;
74213;SDS011;62576;55.694;37.494;2023-05-15T05:47:20;10.45;;;3.40;;
74213;SDS011;62576;55.694;37.494;2023-05-15T05:49:50;8.50;;;3.30;;
74213;SDS011;62576;55.694;37.494;2023-05-15T05:52:22;6.00;;;2.75;;
74213;SDS011;62576;55.694;37.494;2023-05-15T05:54:51;14.43;;;6.10;;
74213;SDS011;62576;55.694;37.494;2023-05-15T05:57:21;9.40;;;3.00;;
74213;SDS011;62576;55.694;37.494;2023-05-15T05:59:53;5.97;;;3.60;;
74213;SDS011;62576;55.694;37.494;2023-05-15T06:02:23;6.07;;;3.10;;
74213;SDS011;62576;55.694;37.494;2023-05-15T06:04:53;6.05;;;3.50;;
74213;SDS011;62576;55.694;37.494;2023-05-15T06:07:23;9.35;;;2.88;;
74213;SDS011;62576;55.694;37.494;2023-05-15T06:09:53;6.30;;;2.88;;
74213;SDS011;62576;55.694;37.494;2023-05-15T06:12:23;5.15;;;3.00;;
74213;SDS011;62576;55.694;37.494;2023-05-15T06:14:56;4.05;;;2.47;;
74213;SDS011;62576;55.694;37.494;2023-05-15T06:17:26;6.30;;;2.35;;
74213;SDS011;62576;55.694;37.494;2023-05-15T06:19:56;4.82;;;2.10;;
74213;SDS011;62576;55.694;37.494;2023-05-15T06:22:26;7.88;;;2.10;;
74213;SDS011;62576;55.694;37.494;2023-05-15T06:24:59;6.22;;;2.70;;
74213;SDS011;62576;55.694;37.494;2023-05-15T06:27:30;4.80;;;2.60;;
74213;SDS011;62576;55.694;37.494;2023-05-15T06:30:01;6.63;;;2.95;;
74213;SDS011;62576;55.694;37.494;2023-05-15T06:32:32;7.30;;;2.40;;
74213;SDS011;62576;55.694;37.494;2023-05-15T06:35:02;5.35;;;2.60;;
74213;SDS011;62576;55.694;37.494;2023-05-15T06:37:32;6.88;;;2.10;;
74213;SDS011;62576;55.694;37.494;2023-05-15T06:40:03;5.82;;;2.17;;
74213;SDS011;62576;55.694;37.494;2023-05-15T06:42:34;5.22;;;2.15;;
74213;SDS011;62576;55.694;37.494;2023-05-15T06:45:07;3.47;;;2.08;;
74213;SDS011;62576;55.694;37.494;2023-05-15T06:47:38;3.17;;;1.95;;
74213;SDS011;62576;55.694;37.494;2023-05-15T06:50:09;5.35;;;2.15;;
74213;SDS011;62576;55.694;37.494;2023-05-15T06:52:39;9.15;;;2.38;;
74213;SDS011;62576;55.694;37.494;2023-05-15T06:55:09;5.13;;;2.20;;
74213;SDS011;62576;55.694;37.494;2023-05-15T06:57:39;4.00;;;1.90;;
74213;SDS011;62576;55.694;37.494;2023-05-15T07:00:11;4.20;;;2.20;;
74213;SDS011;62576;55.694;37.494;2023-05-15T07:02:42;4.82;;;2.15;;
74213;SDS011;62576;55.694;37.494;2023-05-15T07:05:12;3.60;;;2.30;;
74213;SDS011;62576;55.694;37.494;2023-05-15T07:07:43;8.48;;;2.42;;
74213;SDS011;62576;55.694;37.494;2023-05-15T07:10:13;4.55;;;2.10;;
74213;SDS011;62576;55.694;37.494;2023-05-15T07:12:42;5.63;;;2.30;;
74213;SDS011;62576;55.694;37.494;2023-05-15T07:15:14;6.38;;;2.28;;
74213;SDS011;62576;55.694;37.494;2023-05-15T07:17:45;6.95;;;2.30;;
74213;SDS011;62576;55.694;37.494;2023-05-15T07:20:15;8.07;;;2.13;;
74213;SDS011;62576;55.694;37.494;2023-05-15T07:22:45;5.00;;;1.88;;
74213;SDS011;62576;55.694;37.494;2023-05-15T07:25:15;2.17;;;1.83;;
74213;SDS011;62576;55.694;37.494;2023-05-15T07:27:45;9.63;;;2.50;;
74213;SDS011;62576;55.694;37.494;2023-05-15T07:30:16;5.80;;;2.42;;
74213;SDS011;62576;55.694;37.494;2023-05-15T07:32:46;4.07;;;2.13;;
74213;SDS011;62576;55.694;37.494;2023-05-15T07:35:16;5.65;;;1.90;;
74213;SDS011;62576;55.694;37.494;2023-05-15T07:37:46;5.30;;;2.10;;
74213;SDS011;62576;55.694;37.494;2023-05-15T07:40:17;7.55;;;2.47;;
74213;SDS011;62576;55.694;37.494;2023-05-15T07:42:48;6.43;;;2.45;;
74213;SDS011;62576;55.694;37.494;2023-05-15T07:45:20;6.80;;;2.00;;
74213;SDS011;62576;55.694;37.494;2023-05-15T07:47:50;5.88;;;1.88;;
74213;SDS011;62576;55.694;37.494;2023-05-15T07:50:20;4.85;;;1.85;;
74213;SDS011;62576;55.694;37.494;2023-05-15T07:52:50;6.70;;;2.00;;
74213;SDS011;62576;55.694;37.494;2023-05-15T07:55:20;4.65;;;1.90;;
74213;SDS011;62576;55.694;37.494;2023-05-15T07:57:50;3.38;;;1.77;;
74213;SDS011;62576;55.694;37.494;2023-05-15T08:00:22;8.18;;;2.22;;
74213;SDS011;62576;55.694;37.494;2023-05-15T08:02:52;6.68;;;1.92;;
74213;SDS011;62576;55.694;37.494;2023-05-15T08:05:19;2.97;;;2.10;;
74213;SDS011;62576;55.694;37.494;2023-05-15T08:07:49;4.93;;;2.13;;
74213;SDS011;62576;55.694;37.494;2023-05-15T08:10:19;5.97;;;2.78;;
74213;SDS011;62576;55.694;37.494;2023-05-15T08:12:49;7.45;;;1.83;;
74213;SDS011;62576;55.694;37.494;2023-05-15T08:15:19;7.00;;;2.00;;
74213;SDS011;62576;55.694;37.494;2023-05-15T08:17:51;5.10;;;2.00;;
74213;SDS011;62576;55.694;37.494;2023-05-15T08:20:21;4.88;;;1.90;;
74213;SDS011;62576;55.694;37.494;2023-05-15T08:22:52;2.88;;;1.90;;
74213;SDS011;62576;55.694;37.494;2023-05-15T08:25:22;3.78;;;2.00;;
74213;SDS011;62576;55.694;37.494;2023-05-15T08:27:52;7.57;;;2.20;;
74213;SDS011;62576;55.694;37.494;2023-05-15T08:30:23;4.63;;;1.80;;
74213;SDS011;62576;55.694;37.494;2023-05-15T08:32:54;5.47;;;2.55;;
74213;SDS011;62576;55.694;37.494;2023-05-15T08:35:24;3.22;;;2.08;;
74213;SDS011;62576;55.694;37.494;2023-05-15T08:37:54;4.90;;;2.10;;
74213;SDS011;62576;55.694;37.494;2023-05-15T08:40:26;5.47;;;2.20;;
74213;SDS011;62576;55.694;37.494;2023-05-15T08:42:58;4.97;;;1.90;;
74213;SDS011;62576;55.694;37.494;2023-05-15T08:45:33;2.47;;;1.80;;
74213;SDS011;62576;55.694;37.494;2023-05-15T08:48:04;4.90;;;1.70;;
74213;SDS011;62576;55.694;37.494;2023-05-15T08:50:40;4.05;;;1.90;;
74213;SDS011;62576;55.694;37.494;2023-05-15T08:53:12;8.90;;;2.20;;
74213;SDS011;62576;55.694;37.494;2023-05-15T08:55:43;4.90;;;2.88;;
74213;SDS011;62576;55.694;37.494;2023-05-15T08:58:14;3.38;;;1.83;;
74213;SDS011;62576;55.694;37.494;2023-05-15T09:00:46;4.43;;;2.00;;
74213;SDS011;62576;55.694;37.494;2023-05-15T09:03:18;4.15;;;1.80;;
74213;SDS011;62576;55.694;37.494;2023-05-15T09:05:50;3.60;;;1.77;;
74213;SDS011;62576;55.694;37.494;2023-05-15T09:08:21;7.55;;;2.10;;
74213;SDS011;62576;55.694;37.494;2023-05-15T09:10:53;4.43;;;2.30;;
74213;SDS011;62576;55.694;37.494;2023-05-15T09:13:25;6.73;;;2.37;;
74213;SDS011;62576;55.694;37.494;2023-05-15T09:15:56;5.30;;;2.10;;
74213;SDS011;62576;55.694;37.494;2023-05-15T09:18:26;5.45;;;2.03;;
74213;SDS011;62576;55.694;37.494;2023-05-15T09:21:02;3.72;;;1.95;;
74213;SDS011;62576;55.694;37.494;2023-05-15T09:23:50;3.80;;;1.70;;
74213;SDS011;62576;55.694;37.494;2023-05-15T09:26:21;2.88;;;1.75;;
74213;SDS011;62576;55.694;37.494;2023-05-15T09:28:52;4.78;;;2.00;;
74213;SDS011;62576;55.694;37.494;2023-05-15T09:31:32;5.03;;;1.83;;
74213;SDS011;62576;55.694;37.494;2023-05-15T09:34:02;10.00;;;2.10;;
74213;SDS011;62576;55.694;37.494;2023-05-15T09:36:30;3.92;;;2.00;;
74213;SDS011;62576;55.694;37.494;2023-05-15T09:39:00;8.23;;;2.38;;
74213;SDS011;62576;55.694;37.494;2023-05-15T09:41:31;5.28;;;2.30;;
74213;SDS011;62576;55.694;37.494;2023-05-15T09:44:01;12.95;;;2.40;;
74213;SDS011;62576;55.694;37.494;2023-05-15T09:46:34;5.20;;;2.45;;
74213;SDS011;62576;55.694;37.494;2023-05-15T09:49:04;3.80;;;1.90;;
74213;SDS011;62576;55.694;37.494;2023-05-15T09:51:34;6.13;;;2.30;;
74213;SDS011;62576;55.694;37.494;2023-05-15T09:54:04;9.15;;;2.72;;
74213;SDS011;62576;55.694;37.494;2023-05-15T09:56:35;3.90;;;2.03;;
74213;SDS011;62576;55.694;37.494;2023-05-15T09:59:05;8.27;;;2.50;;
74213;SDS011;62576;55.694;37.494;2023-05-15T10:01:45;6.53;;;2.20;;
74213;SDS011;62576;55.694;37.494;2023-05-15T10:04:16;3.33;;;1.90;;
74213;SDS011;62576;55.694;37.494;2023-05-15T10:06:47;8.52;;;2.42;;
74213;SDS011;62576;55.694;37.494;2023-05-15T10:09:17;7.35;;;2.03;;
74213;SDS011;62576;55.694;37.494;2023-05-15T10:11:49;6.18;;;2.05;;
74213;SDS011;62576;55.694;37.494;2023-05-15T10:14:21;6.78;;;2.10;;
74213;SDS011;62576;55.694;37.494;2023-05-15T10:16:55;4.87;;;2.13;;
74213;SDS011;62576;55.694;37.494;2023-05-15T10:19:26;5.43;;;2.22;;
74213;SDS011;62576;55.694;37.494;2023-05-15T10:21:56;7.38;;;2.08;;
74213;SDS011;62576;55.694;37.494;2023-05-15T10:24:28;4.05;;;2.10;;
74213;SDS011;62576;55.694;37.494;2023-05-15T10:26:59;2.92;;;1.70;;
74213;SDS011;62576;55.694;37.494;2023-05-15T10:29:30;2.58;;;1.70;;
74213;SDS011;62576;55.694;37.494;2023-05-15T10:32:02;5.20;;;2.45;;
74213;SDS011;62576;55.694;37.494;2023-05-15T10:34:33;9.25;;;1.90;;
74213;SDS011;62576;55.694;37.494;2023-05-15T10:37:04;4.55;;;2.10;;
74213;SDS011;62576;55.694;37.494;2023-05-15T10:39:35;6.55;;;2.30;;
74213;SDS011;62576;55.694;37.494;2023-05-15T10:42:08;7.75;;;1.85;;
74213;SDS011;62576;55.694;37.494;2023-05-15T10:44:38;4.70;;;1.80;;
74213;SDS011;62576;55.694;37.494;2023-05-15T10:47:10;5.18;;;1.85;;
74213;SDS011;62576;55.694;37.494;2023-05-15T10:52:10;3.92;;;1.80;;
74213;SDS011;62576;55.694;37.494;2023-05-15T10:54:43;4.22;;;1.90;;
74213;SDS011;62576;55.694;37.494;2023-05-15T10:57:14;14.55;;;5.15;;
74213;SDS011;62576;55.694;37.494;2023-05-15T10:59:44;4.40;;;2.00;;
74213;SDS011;62576;55.694;37.494;2023-05-15T11:02:19;3.67;;;2.00;;
74213;SDS011;62576;55.694;37.494;2023-05-15T11:04:54;4.35;;;1.90;;
74213;SDS011;62576;55.694;37.494;2023-05-15T11:07:26;4.63;;;2.22;;
74213;SDS011;62576;55.694;37.494;2023-05-15T11:09:56;3.17;;;2.00;;
74213;SDS011;62576;55.694;37.494;2023-05-15T11:12:53;2.65;;;1.75;;
74213;SDS011;62576;55.694;37.494;2023-05-15T11:15:24;6.07;;;2.10;;
74213;SDS011;62576;55.694;37.494;2023-05-15T11:18:02;5.65;;;2.03;;
74213;SDS011;62576;55.694;37.494;2023-05-15T11:20:33;3.80;;;2.10;;
74213;SDS011;62576;55.694;37.494;2023-05-15T11:23:07;4.75;;;2.20;;
74213;SDS011;62576;55.694;37.494;2023-05-15T11:25:38;2.65;;;1.75;;
74213;SDS011;62576;55.694;37.494;2023-05-15T11:28:13;5.28;;;2.03;;
74213;SDS011;62576;55.694;37.494;2023-05-15T11:30:50;5.87;;;1.83;;
74213;SDS011;62576;55.694;37.494;2023-05-15T11:33:23;2.50;;;1.70;;
74213;SDS011;62576;55.694;37.494;2023-05-15T11:35:56;3.47;;;1.80;;
74213;SDS011;62576;55.694;37.494;2023-05-15T11:38:27;2.28;;;1.60;;
74213;SDS011;62576;55.694;37.494;2023-05-15T11:40:57;4.45;;;1.80;;
74213;SDS011;62576;55.694;37.494;2023-05-15T11:43:31;4.32;;;2.10;;
74213;SDS011;62576;55.694;37.494;2023-05-15T11:46:03;2.90;;;1.80;;
74213;SDS011;62576;55.694;37.494;2023-05-15T11:48:38;2.38;;;2.00;;
74213;SDS011;62576;55.694;37.494;2023-05-15T11:51:13;5.75;;;1.92;;
74213;SDS011;62576;55.694;37.494;2023-05-15T11:53:46;8.13;;;2.10;;
74213;SDS011;62576;55.694;37.494;2023-05-15T11:56:19;6.55;;;1.80;;
74213;SDS011;62576;55.694;37.494;2023-05-15T11:58:50;4.00;;;2.15;;
74213;SDS011;62576;55.694;37.494;2023-05-15T12:01:24;7.20;;;2.10;;
74213;SDS011;62576;55.694;37.494;2023-05-15T12:03:55;17.85;;;9.80;;
74213;SDS011;62576;55.694;37.494;2023-05-15T12:08:55;6.13;;;1.90;;
74213;SDS011;62576;55.694;37.494;2023-05-15T12:11:25;3.15;;;2.08;;
74213;SDS011;62576;55.694;37.494;2023-05-15T12:13:55;6.55;;;2.00;;
74213;SDS011;62576;55.694;37.494;2023-05-15T12:16:25;5.15;;;2.05;;
74213;SDS011;62576;55.694;37.494;2023-05-15T12:18:57;5.13;;;2.40;;
74213;SDS011;62576;55.694;37.494;2023-05-15T12:21:29;5.57;;;2.00;;
74213;SDS011;62576;55.694;37.494;2023-05-15T12:23:59;3.35;;;1.92;;
74213;SDS011;62576;55.694;37.494;2023-05-15T12:26:29;3.75;;;1.90;;
74213;SDS011;62576;55.694;37.494;2023-05-15T12:28:59;3.58;;;2.17;;
74213;SDS011;62576;55.694;37.494;2023-05-15T12:31:30;6.30;;;1.80;;
74213;SDS011;62576;55.694;37.494;2023-05-15T12:34:03;6.60;;;2.03;;
74213;SDS011;62576;55.694;37.494;2023-05-15T12:36:30;4.10;;;1.85;;
74213;SDS011;62576;55.694;37.494;2023-05-15T12:39:03;8.30;;;1.80;;
74213;SDS011;62576;55.694;37.494;2023-05-15T12:41:36;4.45;;;1.83;;
74213;SDS011;62576;55.694;37.494;2023-05-15T12:44:14;7.00;;;2.20;;
74213;SDS011;62576;55.694;37.494;2023-05-15T12:46:44;4.13;;;2.13;;
74213;SDS011;62576;55.694;37.494;2023-05-15T12:49:21;6.17;;;2.23;;
74213;SDS011;62576;55.694;37.494;2023-05-15T12:51:51;6.15;;;2.10;;
74213;SDS011;62576;55.694;37.494;2023-05-15T12:54:22;5.43;;;1.95;;
74213;SDS011;62576;55.694;37.494;2023-05-15T12:56:53;4.97;;;1.90;;
74213;SDS011;62576;55.694;37.494;2023-05-15T12:59:24;5.28;;;2.08;;
74213;SDS011;62576;55.694;37.494;2023-05-15T13:01:54;7.40;;;2.13;;
74213;SDS011;62576;55.694;37.494;2023-05-15T13:04:26;6.20;;;2.00;;
74213;SDS011;62576;55.694;37.494;2023-05-15T13:06:56;8.52;;;2.10;;
74213;SDS011;62576;55.694;37.494;2023-05-15T13:09:26;5.43;;;2.08;;
74213;SDS011;62576;55.694;37.494;2023-05-15T13:11:56;6.20;;;2.20;;
74213;SDS011;62576;55.694;37.494;2023-05-15T13:14:27;7.10;;;2.00;;
74213;SDS011;62576;55.694;37.494;2023-05-15T13:17:01;4.45;;;2.15;;
74213;SDS011;62576;55.694;37.494;2023-05-15T13:19:33;9.25;;;2.47;;
74213;SDS011;62576;55.694;37.494;2023-05-15T13:24:33;5.38;;;2.05;;
74213;SDS011;62576;55.694;37.494;2023-05-15T13:27:06;4.55;;;2.00;;
74213;SDS011;62576;55.694;37.494;2023-05-15T13:29:36;7.70;;;2.20;;
74213;SDS011;62576;55.694;37.494;2023-05-15T13:32:06;6.68;;;2.42;;
74213;SDS011;62576;55.694;37.494;2023-05-15T13:34:37;4.28;;;2.00;;
74213;SDS011;62576;55.694;37.494;2023-05-15T13:37:08;6.10;;;2.45;;
74213;SDS011;62576;55.694;37.494;2023-05-15T13:39:37;6.47;;;2.40;;
74213;SDS011;62576;55.694;37.494;2023-05-15T13:42:07;12.68;;;8.15;;
74213;SDS011;62576;55.694;37.494;2023-05-15T13:44:37;7.00;;;2.10;;
74213;SDS011;62576;55.694;37.494;2023-05-15T13:47:07;6.55;;;2.35;;
74213;SDS011;62576;55.694;37.494;2023-05-15T13:49:39;7.45;;;2.20;;
74213;SDS011;62576;55.694;37.494;2023-05-15T13:52:09;5.05;;;1.90;;
74213;SDS011;62576;55.694;37.494;2023-05-15T13:54:39;6.53;;;2.22;;
74213;SDS011;62576;55.694;37.494;2023-05-15T13:57:09;2.92;;;2.08;;
74213;SDS011;62576;55.694;37.494;2023-05-15T13:59:44;7.95;;;2.08;;
74213;SDS011;62576;55.694;37.494;2023-05-15T14:02:17;3.47;;;1.85;;
74213;SDS011;62576;55.694;37.494;2023-05-15T14:04:49;6.50;;;2.10;;
74213;SDS011;62576;55.694;37.494;2023-05-15T14:07:20;5.95;;;2.22;;
74213;SDS011;62576;55.694;37.494;2023-05-15T14:09:51;4.95;;;2.40;;
74213;SDS011;62576;55.694;37.494;2023-05-15T14:12:21;4.60;;;2.60;;
74213;SDS011;62576;55.694;37.494;2023-05-15T14:14:51;5.65;;;2.67;;
74213;SDS011;62576;55.694;37.494;2023-05-15T14:17:21;6.13;;;2.22;;
74213;SDS011;62576;55.694;37.494;2023-05-15T14:19:52;9.38;;;2.50;;
74213;SDS011;62576;55.694;37.494;2023-05-15T14:22:22;6.30;;;2.35;;
74213;SDS011;62576;55.694;37.494;2023-05-15T14:24:53;6.22;;;2.22;;
74213;SDS011;62576;55.694;37.494;2023-05-15T14:27:23;3.55;;;2.25;;
74213;SDS011;62576;55.694;37.494;2023-05-15T14:29:53;6.25;;;2.67;;
74213;SDS011;62576;55.694;37.494;2023-05-15T14:32:23;7.68;;;2.38;;
74213;SDS011;62576;55.694;37.494;2023-05-15T14:34:55;7.65;;;2.58;;
74213;SDS011;62576;55.694;37.494;2023-05-15T14:37:27;6.43;;;2.53;;
74213;SDS011;62576;55.694;37.494;2023-05-15T14:39:56;5.07;;;2.40;;
74213;SDS011;62576;55.694;37.494;2023-05-15T14:42:27;7.85;;;2.30;;
74213;SDS011;62576;55.694;37.494;2023-05-15T14:44:57;5.78;;;2.30;;
74213;SDS011;62576;55.694;37.494;2023-05-15T14:47:27;10.38;;;2.30;;
74213;SDS011;62576;55.694;37.494;2023-05-15T14:49:59;5.50;;;2.50;;
74213;SDS011;62576;55.694;37.494;2023-05-15T14:55:00;5.60;;;2.40;;
74213;SDS011;62576;55.694;37.494;2023-05-15T14:57:30;4.65;;;2.30;;
74213;SDS011;62576;55.694;37.494;2023-05-15T15:00:00;5.68;;;2.08;;
74213;SDS011;62576;55.694;37.494;2023-05-15T15:02:31;4.27;;;2.17;;
74213;SDS011;62576;55.694;37.494;2023-05-15T15:05:03;5.22;;;2.50;;
74213;SDS011;62576;55.694;37.494;2023-05-15T15:10:30;8.38;;;2.30;;